sensor_id;sensor_type;location;lat;lon;timestamp;pressure;altitude;pressure_sealevel;temperature;humidity
13235;BME280;6683;48.506;9.050;2023-04-30T00:02:56;98326.06;;;15.26;67.00
13235;BME280;6683;48.506;9.050;2023-04-30T00:06:00;98316.44;;;15.25;67.16
13235;BME280;6683;48.506;9.050;2023-04-30T00:09:02;98327.88;;;15.26;67.28
13235;BME280;6683;48.506;9.050;2023-04-30T00:12:05;98339.56;;;15.25;67.20
13235;BME280;6683;48.506;9.050;2023-04-30T00:15:08;98339.56;;;15.25;67.25
13235;BME280;6683;48.506;9.050;2023-04-30T00:18:11;98346.72;;;15.24;67.32
13235;BME280;6683;48.506;9.050;2023-04-30T00:21:14;98348.34;;;15.25;67.55
13235;BME280;6683;48.506;9.050;2023-04-30T00:24:17;98341.19;;;15.26;67.59
13235;BME280;6683;48.506;9.050;2023-04-30T00:27:19;98349.78;;;15.28;67.60
13235;BME280;6683;48.506;9.050;2023-04-30T00:30:22;98350.59;;;15.28;67.44
13235;BME280;6683;48.506;9.050;2023-04-30T00:33:24;98342.63;;;15.28;67.54
13235;BME280;6683;48.506;9.050;2023-04-30T00:36:28;98347.94;;;15.28;67.68
13235;BME280;6683;48.506;9.050;2023-04-30T00:39:30;98346.88;;;15.29;67.54
13235;BME280;6683;48.506;9.050;2023-04-30T00:42:33;98350.38;;;15.30;67.46
13235;BME280;6683;48.506;9.050;2023-04-30T00:45:35;98346.88;;;15.29;67.65
13235;BME280;6683;48.506;9.050;2023-04-30T00:48:38;98357.53;;;15.29;67.64
13235;BME280;6683;48.506;9.050;2023-04-30T00:51:41;98343.44;;;15.29;67.73
13235;BME280;6683;48.506;9.050;2023-04-30T00:54:45;98345.28;;;15.28;67.42
13235;BME280;6683;48.506;9.050;2023-04-30T00:57:48;98348.94;;;15.27;67.63
13235;BME280;6683;48.506;9.050;2023-04-30T01:00:50;98350.59;;;15.28;67.73
13235;BME280;6683;48.506;9.050;2023-04-30T01:03:53;98352.88;;;15.25;67.79
13235;BME280;6683;48.506;9.050;2023-04-30T01:06:57;98352.88;;;15.25;67.74
13235;BME280;6683;48.506;9.050;2023-04-30T01:10:01;98349.38;;;15.24;67.83
13235;BME280;6683;48.506;9.050;2023-04-30T01:13:15;98343.47;;;15.22;68.19
13235;BME280;6683;48.506;9.050;2023-04-30T01:16:22;98344.47;;;15.21;67.91
13235;BME280;6683;48.506;9.050;2023-04-30T01:19:37;98353.50;;;15.20;68.34
13235;BME280;6683;48.506;9.050;2023-04-30T01:22:51;98353.72;;;15.18;68.19
13235;BME280;6683;48.506;9.050;2023-04-30T01:26:10;98348.81;;;15.15;68.12
13235;BME280;6683;48.506;9.050;2023-04-30T01:29:18;98340.00;;;15.15;68.11
13235;BME280;6683;48.506;9.050;2023-04-30T01:32:21;98340.22;;;15.13;67.99
13235;BME280;6683;48.506;9.050;2023-04-30T01:35:57;98337.97;;;15.10;68.36
13235;BME280;6683;48.506;9.050;2023-04-30T01:39:14;98332.50;;;15.05;68.39
13235;BME280;6683;48.506;9.050;2023-04-30T01:42:21;98330.06;;;15.04;68.12
13235;BME280;6683;48.506;9.050;2023-04-30T01:45:40;98333.72;;;15.03;68.59
13235;BME280;6683;48.506;9.050;2023-04-30T01:48:53;98329.44;;;15.02;68.71
13235;BME280;6683;48.506;9.050;2023-04-30T01:52:11;98334.13;;;15.00;68.78
13235;BME280;6683;48.506;9.050;2023-04-30T01:55:23;98331.69;;;14.98;68.69
13235;BME280;6683;48.506;9.050;2023-04-30T01:58:29;98333.34;;;14.99;68.61
13235;BME280;6683;48.506;9.050;2023-04-30T02:01:33;98333.34;;;14.99;68.72
13235;BME280;6683;48.506;9.050;2023-04-30T02:04:35;98333.34;;;14.99;68.56
13235;BME280;6683;48.506;9.050;2023-04-30T02:07:40;98332.31;;;15.00;68.56
13235;BME280;6683;48.506;9.050;2023-04-30T02:10:43;98323.94;;;14.97;68.68
13235;BME280;6683;48.506;9.050;2023-04-30T02:13:46;98323.94;;;14.97;68.52
13235;BME280;6683;48.506;9.050;2023-04-30T02:16:50;98322.53;;;14.94;68.61
13235;BME280;6683;48.506;9.050;2023-04-30T02:19:52;98322.53;;;14.94;68.72
13235;BME280;6683;48.506;9.050;2023-04-30T02:22:56;98318.44;;;14.92;68.67
13235;BME280;6683;48.506;9.050;2023-04-30T02:25:58;98317.81;;;14.90;68.65
13235;BME280;6683;48.506;9.050;2023-04-30T02:29:01;98318.28;;;14.87;68.66
13235;BME280;6683;48.506;9.050;2023-04-30T02:32:05;98319.72;;;14.83;68.62
13235;BME280;6683;48.506;9.050;2023-04-30T02:35:08;98319.09;;;14.81;68.74
13235;BME280;6683;48.506;9.050;2023-04-30T02:38:10;98323.22;;;14.77;68.77
13235;BME280;6683;48.506;9.050;2023-04-30T02:41:12;98332.41;;;14.74;68.69
13235;BME280;6683;48.506;9.050;2023-04-30T02:44:15;98323.00;;;14.72;68.43
13235;BME280;6683;48.506;9.050;2023-04-30T02:47:18;98325.28;;;14.68;68.97
13235;BME280;6683;48.506;9.050;2023-04-30T02:50:21;98334.25;;;14.67;68.70
13235;BME280;6683;48.506;9.050;2023-04-30T02:53:23;98330.19;;;14.65;68.79
13235;BME280;6683;48.506;9.050;2023-04-30T02:56:25;98342.84;;;14.63;68.75
13235;BME280;6683;48.506;9.050;2023-04-30T02:59:28;98344.91;;;14.61;68.73
13235;BME280;6683;48.506;9.050;2023-04-30T03:02:32;98336.31;;;14.59;68.93
13235;BME280;6683;48.506;9.050;2023-04-30T03:05:34;98341.84;;;14.57;68.94
13235;BME280;6683;48.506;9.050;2023-04-30T03:08:36;98335.72;;;14.57;68.88
13235;BME280;6683;48.506;9.050;2023-04-30T03:11:39;98349.22;;;14.55;68.81
13235;BME280;6683;48.506;9.050;2023-04-30T03:14:41;98345.97;;;14.53;68.86
13235;BME280;6683;48.506;9.050;2023-04-30T03:17:45;98341.66;;;14.52;68.78
13235;BME280;6683;48.506;9.050;2023-04-30T03:20:47;98341.88;;;14.51;68.76
13235;BME280;6683;48.506;9.050;2023-04-30T03:23:49;98331.47;;;14.49;68.74
13235;BME280;6683;48.506;9.050;2023-04-30T03:26:52;98328.19;;;14.47;68.60
13235;BME280;6683;48.506;9.050;2023-04-30T03:29:54;98326.75;;;14.45;68.75
13235;BME280;6683;48.506;9.050;2023-04-30T03:32:58;98319.19;;;14.41;68.83
13235;BME280;6683;48.506;9.050;2023-04-30T03:36:01;98316.75;;;14.40;68.78
13235;BME280;6683;48.506;9.050;2023-04-30T03:39:03;98318.19;;;14.36;68.76
13235;BME280;6683;48.506;9.050;2023-04-30T03:42:06;98316.59;;;14.35;68.83
13235;BME280;6683;48.506;9.050;2023-04-30T03:45:09;98319.84;;;14.30;68.62
13235;BME280;6683;48.506;9.050;2023-04-30T03:48:13;98317.78;;;14.26;68.74
13235;BME280;6683;48.506;9.050;2023-04-30T03:51:16;98315.34;;;14.24;68.81
13235;BME280;6683;48.506;9.050;2023-04-30T03:54:19;98318.59;;;14.20;68.92
13235;BME280;6683;48.506;9.050;2023-04-30T03:57:21;98319.63;;;14.19;68.86
13235;BME280;6683;48.506;9.050;2023-04-30T04:00:24;98321.06;;;14.15;68.88
13235;BME280;6683;48.506;9.050;2023-04-30T04:03:27;98316.97;;;14.12;68.93
13235;BME280;6683;48.506;9.050;2023-04-30T04:06:29;98321.66;;;14.10;68.90
13235;BME280;6683;48.506;9.050;2023-04-30T04:09:33;98325.56;;;14.08;69.04
13235;BME280;6683;48.506;9.050;2023-04-30T04:12:35;98319.84;;;14.04;68.97
13235;BME280;6683;48.506;9.050;2023-04-30T04:15:37;98328.22;;;14.01;69.07
13235;BME280;6683;48.506;9.050;2023-04-30T04:18:41;98339.22;;;13.98;69.13
13235;BME280;6683;48.506;9.050;2023-04-30T04:21:44;98339.44;;;13.97;69.16
13235;BME280;6683;48.506;9.050;2023-04-30T04:24:46;98337.78;;;13.96;69.08
13235;BME280;6683;48.506;9.050;2023-04-30T04:27:49;98334.34;;;13.95;69.05
13235;BME280;6683;48.506;9.050;2023-04-30T04:30:52;98336.19;;;13.95;69.10
13235;BME280;6683;48.506;9.050;2023-04-30T04:34:02;98338.22;;;13.93;69.36
13235;BME280;6683;48.506;9.050;2023-04-30T04:37:05;98344.16;;;13.95;69.32
13235;BME280;6683;48.506;9.050;2023-04-30T04:40:08;98351.06;;;13.96;69.27
13235;BME280;6683;48.506;9.050;2023-04-30T04:43:11;98350.66;;;13.99;69.16
13235;BME280;6683;48.506;9.050;2023-04-30T04:46:14;98346.19;;;13.99;69.24
13235;BME280;6683;48.506;9.050;2023-04-30T04:49:18;98349.47;;;14.01;69.46
13235;BME280;6683;48.506;9.050;2023-04-30T04:52:20;98356.19;;;14.04;69.14
13235;BME280;6683;48.506;9.050;2023-04-30T04:55:22;98353.34;;;14.05;69.35
13235;BME280;6683;48.506;9.050;2023-04-30T04:58:24;98349.47;;;14.08;69.29
13235;BME280;6683;48.506;9.050;2023-04-30T05:01:28;98354.34;;;14.11;69.19
13235;BME280;6683;48.506;9.050;2023-04-30T05:04:32;98357.81;;;14.11;69.08
13235;BME280;6683;48.506;9.050;2023-04-30T05:07:34;98351.47;;;14.12;69.07
13235;BME280;6683;48.506;9.050;2023-04-30T05:10:36;98360.47;;;14.11;69.08
13235;BME280;6683;48.506;9.050;2023-04-30T05:13:38;98354.94;;;14.13;69.25
13235;BME280;6683;48.506;9.050;2023-04-30T05:16:41;98350.47;;;14.13;69.08
13235;BME280;6683;48.506;9.050;2023-04-30T05:19:45;98351.28;;;14.14;69.17
13235;BME280;6683;48.506;9.050;2023-04-30T05:22:50;98353.53;;;14.17;69.30
13235;BME280;6683;48.506;9.050;2023-04-30T05:25:52;98351.47;;;14.19;69.35
13235;BME280;6683;48.506;9.050;2023-04-30T05:28:55;98353.13;;;14.20;69.20
13235;BME280;6683;48.506;9.050;2023-04-30T05:31:57;98345.75;;;14.22;69.22
13235;BME280;6683;48.506;9.050;2023-04-30T05:35:01;98351.47;;;14.25;69.41
13235;BME280;6683;48.506;9.050;2023-04-30T05:38:04;98359.47;;;14.32;69.50
13235;BME280;6683;48.506;9.050;2023-04-30T05:41:06;98354.38;;;14.37;69.46
13235;BME280;6683;48.506;9.050;2023-04-30T05:44:08;98356.81;;;14.38;69.23
13235;BME280;6683;48.506;9.050;2023-04-30T05:47:11;98347.63;;;14.41;69.51
13235;BME280;6683;48.506;9.050;2023-04-30T05:50:15;98355.97;;;14.51;69.77
13235;BME280;6683;48.506;9.050;2023-04-30T05:53:17;98352.03;;;14.67;69.99
13235;BME280;6683;48.506;9.050;2023-04-30T05:56:20;98344.88;;;14.80;69.88
13235;BME280;6683;48.506;9.050;2023-04-30T05:59:23;98345.22;;;14.90;69.60
13235;BME280;6683;48.506;9.050;2023-04-30T06:02:26;98342.09;;;15.06;69.95
13235;BME280;6683;48.506;9.050;2023-04-30T06:05:30;98346.50;;;15.26;69.85
13235;BME280;6683;48.506;9.050;2023-04-30T06:08:32;98347.69;;;15.43;69.67
13235;BME280;6683;48.506;9.050;2023-04-30T06:11:35;98349.22;;;15.57;69.16
13235;BME280;6683;48.506;9.050;2023-04-30T06:14:38;98347.09;;;15.72;69.16
13235;BME280;6683;48.506;9.050;2023-04-30T06:17:45;98350.03;;;15.88;69.27
13235;BME280;6683;48.506;9.050;2023-04-30T06:20:48;98341.13;;;16.01;69.11
13235;BME280;6683;48.506;9.050;2023-04-30T06:23:51;98339.75;;;16.17;68.89
13235;BME280;6683;48.506;9.050;2023-04-30T06:26:53;98338.63;;;16.31;68.18
13235;BME280;6683;48.506;9.050;2023-04-30T06:29:56;98344.50;;;16.39;68.29
13235;BME280;6683;48.506;9.050;2023-04-30T06:32:58;98347.63;;;16.54;68.22
13235;BME280;6683;48.506;9.050;2023-04-30T06:36:02;98339.09;;;16.70;67.86
13235;BME280;6683;48.506;9.050;2023-04-30T06:39:05;98337.72;;;16.79;67.28
13235;BME280;6683;48.506;9.050;2023-04-30T06:42:08;98339.91;;;16.89;67.01
13235;BME280;6683;48.506;9.050;2023-04-30T06:45:11;98345.28;;;17.01;66.84
13235;BME280;6683;48.506;9.050;2023-04-30T06:48:15;98347.56;;;17.15;66.75
13235;BME280;6683;48.506;9.050;2023-04-30T06:51:18;98352.38;;;17.25;66.26
13235;BME280;6683;48.506;9.050;2023-04-30T06:54:21;98349.00;;;17.29;65.76
13235;BME280;6683;48.506;9.050;2023-04-30T06:57:23;98344.66;;;17.35;65.45
13235;BME280;6683;48.506;9.050;2023-04-30T07:00:27;98344.41;;;17.36;65.09
13235;BME280;6683;48.506;9.050;2023-04-30T07:03:29;98345.69;;;17.34;64.70
13235;BME280;6683;48.506;9.050;2023-04-30T07:06:34;98347.75;;;17.32;64.81
13235;BME280;6683;48.506;9.050;2023-04-30T07:09:36;98341.75;;;17.36;64.74
13235;BME280;6683;48.506;9.050;2023-04-30T07:12:39;98338.25;;;17.36;64.11
13235;BME280;6683;48.506;9.050;2023-04-30T07:15:42;98338.50;;;17.34;64.30
13235;BME280;6683;48.506;9.050;2023-04-30T07:18:44;98335.38;;;17.37;64.26
13235;BME280;6683;48.506;9.050;2023-04-30T07:21:49;98330.84;;;17.38;64.20
13235;BME280;6683;48.506;9.050;2023-04-30T07:24:52;98324.84;;;17.42;64.24
13235;BME280;6683;48.506;9.050;2023-04-30T07:27:54;98322.47;;;17.52;64.19
13235;BME280;6683;48.506;9.050;2023-04-30T07:30:57;98330.03;;;17.67;64.21
13235;BME280;6683;48.506;9.050;2023-04-30T07:34:00;98337.63;;;17.82;63.91
13235;BME280;6683;48.506;9.050;2023-04-30T07:37:04;98324.75;;;17.90;63.81
13235;BME280;6683;48.506;9.050;2023-04-30T07:40:08;98329.91;;;18.03;63.58
13235;BME280;6683;48.506;9.050;2023-04-30T07:43:12;98325.28;;;18.10;63.37
13235;BME280;6683;48.506;9.050;2023-04-30T07:46:15;98320.75;;;18.22;63.20
13235;BME280;6683;48.506;9.050;2023-04-30T07:49:17;98323.41;;;18.34;63.11
13235;BME280;6683;48.506;9.050;2023-04-30T07:52:21;98329.59;;;18.46;62.83
13235;BME280;6683;48.506;9.050;2023-04-30T07:55:23;98329.94;;;18.61;62.91
13235;BME280;6683;48.506;9.050;2023-04-30T07:58:25;98329.00;;;18.79;62.57
13235;BME280;6683;48.506;9.050;2023-04-30T08:01:28;98325.31;;;18.96;62.16
13235;BME280;6683;48.506;9.050;2023-04-30T08:04:30;98328.00;;;19.08;61.81
13235;BME280;6683;48.506;9.050;2023-04-30T08:07:34;98326.31;;;19.19;61.23
13235;BME280;6683;48.506;9.050;2023-04-30T08:10:36;98324.56;;;19.24;61.20
13235;BME280;6683;48.506;9.050;2023-04-30T08:13:38;98325.22;;;19.31;61.11
13235;BME280;6683;48.506;9.050;2023-04-30T08:16:41;98326.53;;;19.29;60.31
13235;BME280;6683;48.506;9.050;2023-04-30T08:19:44;98321.56;;;19.21;60.35
13235;BME280;6683;48.506;9.050;2023-04-30T08:22:48;98319.19;;;19.24;60.48
13235;BME280;6683;48.506;9.050;2023-04-30T08:25:51;98327.56;;;19.28;60.42
13235;BME280;6683;48.506;9.050;2023-04-30T08:28:53;98326.28;;;19.30;60.10
13235;BME280;6683;48.506;9.050;2023-04-30T08:31:58;98324.66;;;19.29;60.38
13235;BME280;6683;48.506;9.050;2023-04-30T08:35:04;98321.41;;;19.27;59.91
13235;BME280;6683;48.506;9.050;2023-04-30T08:38:08;98320.72;;;19.20;59.75
13235;BME280;6683;48.506;9.050;2023-04-30T08:41:12;98317.28;;;19.08;59.72
13235;BME280;6683;48.506;9.050;2023-04-30T08:44:15;98319.28;;;19.01;59.97
13235;BME280;6683;48.506;9.050;2023-04-30T08:47:19;98312.63;;;19.03;60.12
13235;BME280;6683;48.506;9.050;2023-04-30T08:50:21;98317.75;;;19.05;59.71
13235;BME280;6683;48.506;9.050;2023-04-30T08:53:25;98316.13;;;19.04;59.25
13235;BME280;6683;48.506;9.050;2023-04-30T08:56:28;98324.38;;;19.02;59.25
13235;BME280;6683;48.506;9.050;2023-04-30T08:59:33;98314.28;;;19.04;59.14
13235;BME280;6683;48.506;9.050;2023-04-30T09:02:39;98306.09;;;19.11;59.28
13235;BME280;6683;48.506;9.050;2023-04-30T09:05:42;98311.66;;;19.21;59.32
13235;BME280;6683;48.506;9.050;2023-04-30T09:08:48;98316.53;;;19.36;59.09
13235;BME280;6683;48.506;9.050;2023-04-30T09:11:52;98309.47;;;19.46;58.92
13235;BME280;6683;48.506;9.050;2023-04-30T09:14:59;98308.84;;;19.56;58.80
13235;BME280;6683;48.506;9.050;2023-04-30T09:18:10;98300.53;;;19.69;58.86
13235;BME280;6683;48.506;9.050;2023-04-30T09:21:13;98312.88;;;19.86;58.11
13235;BME280;6683;48.506;9.050;2023-04-30T09:24:17;98304.75;;;19.98;57.80
13235;BME280;6683;48.506;9.050;2023-04-30T09:27:21;98309.22;;;20.09;57.57
13235;BME280;6683;48.506;9.050;2023-04-30T09:30:30;98308.72;;;20.12;57.79
13235;BME280;6683;48.506;9.050;2023-04-30T09:33:44;98319.28;;;20.19;57.85
13235;BME280;6683;48.506;9.050;2023-04-30T09:36:54;98312.28;;;20.18;57.74
13235;BME280;6683;48.506;9.050;2023-04-30T09:39:58;98311.16;;;20.14;57.05
13235;BME280;6683;48.506;9.050;2023-04-30T09:43:00;98318.06;;;20.10;57.08
13235;BME280;6683;48.506;9.050;2023-04-30T09:46:03;98315.88;;;20.07;56.92
13235;BME280;6683;48.506;9.050;2023-04-30T09:49:05;98307.03;;;20.06;56.69
13235;BME280;6683;48.506;9.050;2023-04-30T09:52:08;98309.97;;;20.05;56.76
13235;BME280;6683;48.506;9.050;2023-04-30T09:55:12;98312.03;;;20.03;56.93
13235;BME280;6683;48.506;9.050;2023-04-30T09:58:16;98306.47;;;20.04;56.69
13235;BME280;6683;48.506;9.050;2023-04-30T10:01:20;98310.19;;;20.03;56.64
13235;BME280;6683;48.506;9.050;2023-04-30T10:04:23;98300.53;;;20.02;56.62
13235;BME280;6683;48.506;9.050;2023-04-30T10:07:37;98306.88;;;19.96;56.55
13235;BME280;6683;48.506;9.050;2023-04-30T10:10:44;98308.41;;;19.92;56.44
13235;BME280;6683;48.506;9.050;2023-04-30T10:13:54;98305.97;;;19.90;56.70
13235;BME280;6683;48.506;9.050;2023-04-30T10:17:07;98308.72;;;19.96;56.83
13235;BME280;6683;48.506;9.050;2023-04-30T10:20:12;98304.41;;;19.94;56.20
13235;BME280;6683;48.506;9.050;2023-04-30T10:23:15;98299.88;;;19.95;56.23
13235;BME280;6683;48.506;9.050;2023-04-30T10:26:20;98300.69;;;19.96;56.10
13235;BME280;6683;48.506;9.050;2023-04-30T10:29:24;98295.91;;;19.98;55.73
13235;BME280;6683;48.506;9.050;2023-04-30T10:32:34;98302.31;;;19.97;56.10
13235;BME280;6683;48.506;9.050;2023-04-30T10:35:46;98290.78;;;19.96;55.92
13235;BME280;6683;48.506;9.050;2023-04-30T10:38:51;98293.22;;;19.98;55.74
13235;BME280;6683;48.506;9.050;2023-04-30T10:42:01;98292.97;;;19.99;56.19
13235;BME280;6683;48.506;9.050;2023-04-30T10:45:08;98291.44;;;20.03;55.78
13235;BME280;6683;48.506;9.050;2023-04-30T10:48:11;98280.81;;;20.08;55.77
13235;BME280;6683;48.506;9.050;2023-04-30T10:51:17;98277.38;;;20.13;55.41
13235;BME280;6683;48.506;9.050;2023-04-30T10:54:25;98287.34;;;20.17;55.71
13235;BME280;6683;48.506;9.050;2023-04-30T10:57:29;98280.72;;;20.20;55.31
13235;BME280;6683;48.506;9.050;2023-04-30T11:00:32;98280.13;;;20.18;55.16
13235;BME280;6683;48.506;9.050;2023-04-30T11:03:35;98279.31;;;20.17;54.96
13235;BME280;6683;48.506;9.050;2023-04-30T11:07:08;98276.06;;;20.15;55.58
13235;BME280;6683;48.506;9.050;2023-04-30T11:10:13;98277.13;;;20.14;54.82
13235;BME280;6683;48.506;9.050;2023-04-30T11:13:17;98274.38;;;20.09;54.83
13235;BME280;6683;48.506;9.050;2023-04-30T11:16:28;98273.00;;;20.07;55.03
13235;BME280;6683;48.506;9.050;2023-04-30T11:19:32;98265.75;;;20.07;54.79
13235;BME280;6683;48.506;9.050;2023-04-30T11:22:35;98272.25;;;20.11;54.78
13235;BME280;6683;48.506;9.050;2023-04-30T11:25:41;98267.72;;;20.12;54.65
13235;BME280;6683;48.506;9.050;2023-04-30T11:28:52;98253.28;;;20.13;54.82
13235;BME280;6683;48.506;9.050;2023-04-30T11:31:59;98258.94;;;20.16;54.45
13235;BME280;6683;48.506;9.050;2023-04-30T11:35:02;98262.63;;;20.27;54.30
13235;BME280;6683;48.506;9.050;2023-04-30T11:38:06;98250.22;;;20.42;54.17
13235;BME280;6683;48.506;9.050;2023-04-30T11:41:11;98246.28;;;20.71;53.75
13235;BME280;6683;48.506;9.050;2023-04-30T11:44:25;98242.94;;;21.03;53.51
13235;BME280;6683;48.506;9.050;2023-04-30T11:47:36;98231.31;;;21.19;52.51
13235;BME280;6683;48.506;9.050;2023-04-30T11:50:41;98233.03;;;21.30;52.40
13235;BME280;6683;48.506;9.050;2023-04-30T11:53:45;98240.41;;;21.44;52.15
13235;BME280;6683;48.506;9.050;2023-04-30T11:56:48;98231.69;;;21.59;52.04
13235;BME280;6683;48.506;9.050;2023-04-30T11:59:52;98241.66;;;21.64;51.35
13235;BME280;6683;48.506;9.050;2023-04-30T12:02:56;98239.53;;;21.66;51.83
13235;BME280;6683;48.506;9.050;2023-04-30T12:05:59;98230.50;;;21.77;51.50
13235;BME280;6683;48.506;9.050;2023-04-30T12:09:03;98232.84;;;22.00;51.64
13235;BME280;6683;48.506;9.050;2023-04-30T12:12:07;98234.38;;;22.27;51.25
13235;BME280;6683;48.506;9.050;2023-04-30T12:15:17;98236.88;;;22.44;50.34
13235;BME280;6683;48.506;9.050;2023-04-30T12:18:22;98238.06;;;22.58;49.46
13235;BME280;6683;48.506;9.050;2023-04-30T12:21:25;98219.50;;;22.62;49.31
13235;BME280;6683;48.506;9.050;2023-04-30T12:24:28;98227.03;;;22.60;49.31
13235;BME280;6683;48.506;9.050;2023-04-30T12:27:33;98227.31;;;22.68;49.44
13235;BME280;6683;48.506;9.050;2023-04-30T12:30:38;98219.88;;;22.85;48.98
13235;BME280;6683;48.506;9.050;2023-04-30T12:33:41;98216.16;;;23.12;48.93
13235;BME280;6683;48.506;9.050;2023-04-30T12:36:43;98215.44;;;23.36;48.60
13235;BME280;6683;48.506;9.050;2023-04-30T12:39:47;98207.91;;;23.48;47.92
13235;BME280;6683;48.506;9.050;2023-04-30T12:42:49;98210.59;;;23.58;47.90
13235;BME280;6683;48.506;9.050;2023-04-30T12:45:54;98199.28;;;23.71;47.63
13235;BME280;6683;48.506;9.050;2023-04-30T12:48:57;98198.69;;;24.00;47.97
13235;BME280;6683;48.506;9.050;2023-04-30T12:52:02;98193.28;;;24.25;47.42
13235;BME280;6683;48.506;9.050;2023-04-30T12:55:17;98192.72;;;24.33;47.24
13235;BME280;6683;48.506;9.050;2023-04-30T12:58:20;98193.25;;;24.35;46.84
13235;BME280;6683;48.506;9.050;2023-04-30T13:01:25;98181.91;;;24.33;46.25
13235;BME280;6683;48.506;9.050;2023-04-30T13:04:28;98185.19;;;24.30;46.56
13235;BME280;6683;48.506;9.050;2023-04-30T13:07:36;98167.94;;;24.26;46.31
13235;BME280;6683;48.506;9.050;2023-04-30T13:10:40;98172.50;;;24.20;45.68
13235;BME280;6683;48.506;9.050;2023-04-30T13:13:43;98171.72;;;24.10;45.33
13235;BME280;6683;48.506;9.050;2023-04-30T13:16:46;98171.22;;;23.82;45.39
13235;BME280;6683;48.506;9.050;2023-04-30T13:19:49;98167.22;;;23.65;46.07
13235;BME280;6683;48.506;9.050;2023-04-30T13:22:51;98170.16;;;23.53;45.83
13235;BME280;6683;48.506;9.050;2023-04-30T13:25:54;98169.88;;;23.35;46.09
13235;BME280;6683;48.506;9.050;2023-04-30T13:28:56;98169.56;;;23.16;46.37
13235;BME280;6683;48.506;9.050;2023-04-30T13:32:00;98170.38;;;22.96;46.14
13235;BME280;6683;48.506;9.050;2023-04-30T13:35:05;98166.81;;;22.81;46.74
13235;BME280;6683;48.506;9.050;2023-04-30T13:38:08;98173.78;;;22.72;46.76
13235;BME280;6683;48.506;9.050;2023-04-30T13:41:11;98178.06;;;22.63;46.71
13235;BME280;6683;48.506;9.050;2023-04-30T13:44:13;98164.03;;;22.56;46.95
13235;BME280;6683;48.506;9.050;2023-04-30T13:47:18;98159.41;;;22.51;47.49
13235;BME280;6683;48.506;9.050;2023-04-30T13:50:21;98156.97;;;22.45;47.18
13235;BME280;6683;48.506;9.050;2023-04-30T13:53:23;98151.91;;;22.48;47.72
13235;BME280;6683;48.506;9.050;2023-04-30T13:56:25;98152.97;;;22.52;47.73
13235;BME280;6683;48.506;9.050;2023-04-30T13:59:28;98137.66;;;22.58;47.78
13235;BME280;6683;48.506;9.050;2023-04-30T14:02:32;98138.78;;;22.72;47.65
13235;BME280;6683;48.506;9.050;2023-04-30T14:05:35;98141.00;;;22.85;47.36
13235;BME280;6683;48.506;9.050;2023-04-30T14:08:38;98129.44;;;22.94;47.41
13235;BME280;6683;48.506;9.050;2023-04-30T14:11:41;98126.22;;;22.92;47.55
13235;BME280;6683;48.506;9.050;2023-04-30T14:14:43;98122.41;;;22.88;47.37
13235;BME280;6683;48.506;9.050;2023-04-30T14:17:47;98127.81;;;22.83;47.06
13235;BME280;6683;48.506;9.050;2023-04-30T14:20:49;98125.88;;;22.74;47.01
13235;BME280;6683;48.506;9.050;2023-04-30T14:23:52;98125.63;;;22.65;47.23
13235;BME280;6683;48.506;9.050;2023-04-30T14:26:54;98124.50;;;22.61;47.21
13235;BME280;6683;48.506;9.050;2023-04-30T14:29:57;98116.41;;;22.56;47.53
13235;BME280;6683;48.506;9.050;2023-04-30T14:33:01;98111.53;;;22.53;47.23
13235;BME280;6683;48.506;9.050;2023-04-30T14:36:04;98111.53;;;22.48;47.08
13235;BME280;6683;48.506;9.050;2023-04-30T14:39:06;98114.47;;;22.42;46.92
13235;BME280;6683;48.506;9.050;2023-04-30T14:42:09;98119.81;;;22.37;47.48
13235;BME280;6683;48.506;9.050;2023-04-30T14:45:12;98116.06;;;22.33;47.09
13235;BME280;6683;48.506;9.050;2023-04-30T14:48:16;98110.13;;;22.25;47.25
13235;BME280;6683;48.506;9.050;2023-04-30T14:51:18;98122.19;;;22.18;46.98
13235;BME280;6683;48.506;9.050;2023-04-30T14:54:20;98113.00;;;22.14;47.22
13235;BME280;6683;48.506;9.050;2023-04-30T14:57:22;98110.88;;;22.16;47.43
13235;BME280;6683;48.506;9.050;2023-04-30T15:00:25;98101.47;;;22.18;47.77
13235;BME280;6683;48.506;9.050;2023-04-30T15:03:30;98099.06;;;22.17;47.10
13235;BME280;6683;48.506;9.050;2023-04-30T15:06:33;98103.06;;;22.14;47.25
13235;BME280;6683;48.506;9.050;2023-04-30T15:09:35;98104.13;;;22.13;47.54
13235;BME280;6683;48.506;9.050;2023-04-30T15:12:37;98105.50;;;22.11;47.26
13235;BME280;6683;48.506;9.050;2023-04-30T15:15:40;98107.34;;;22.05;47.08
13235;BME280;6683;48.506;9.050;2023-04-30T15:18:44;98097.06;;;21.97;47.25
13235;BME280;6683;48.506;9.050;2023-04-30T15:21:47;98102.44;;;21.92;47.50
13235;BME280;6683;48.506;9.050;2023-04-30T15:24:49;98108.59;;;21.88;47.45
13235;BME280;6683;48.506;9.050;2023-04-30T15:27:51;98090.25;;;21.80;47.53
13235;BME280;6683;48.506;9.050;2023-04-30T15:30:54;98099.31;;;21.74;47.46
13235;BME280;6683;48.506;9.050;2023-04-30T15:33:58;98088.56;;;21.69;47.28
13235;BME280;6683;48.506;9.050;2023-04-30T15:37:00;98096.34;;;21.65;47.45
13235;BME280;6683;48.506;9.050;2023-04-30T15:40:04;98091.22;;;21.64;47.30
13235;BME280;6683;48.506;9.050;2023-04-30T15:43:07;98088.78;;;21.62;47.38
13235;BME280;6683;48.506;9.050;2023-04-30T15:46:09;98092.25;;;21.58;47.56
13235;BME280;6683;48.506;9.050;2023-04-30T15:49:13;98087.91;;;21.52;47.76
13235;BME280;6683;48.506;9.050;2023-04-30T15:52:15;98092.47;;;21.51;47.60
13235;BME280;6683;48.506;9.050;2023-04-30T15:55:18;98090.31;;;21.48;47.95
13235;BME280;6683;48.506;9.050;2023-04-30T15:58:21;98076.84;;;21.43;47.55
13235;BME280;6683;48.506;9.050;2023-04-30T16:01:23;98074.69;;;21.40;47.93
13235;BME280;6683;48.506;9.050;2023-04-30T16:04:27;98083.78;;;21.34;47.74
13235;BME280;6683;48.506;9.050;2023-04-30T16:07:30;98082.41;;;21.31;48.03
13235;BME280;6683;48.506;9.050;2023-04-30T16:10:32;98069.47;;;21.23;47.58
13235;BME280;6683;48.506;9.050;2023-04-30T16:13:35;98076.44;;;21.19;48.09
13235;BME280;6683;48.506;9.050;2023-04-30T16:16:37;98070.75;;;21.16;48.13
13235;BME280;6683;48.506;9.050;2023-04-30T16:19:41;98067.78;;;21.12;48.33
13235;BME280;6683;48.506;9.050;2023-04-30T16:22:44;98065.84;;;21.08;48.10
13235;BME280;6683;48.506;9.050;2023-04-30T16:25:48;98066.03;;;21.01;48.18
13235;BME280;6683;48.506;9.050;2023-04-30T16:28:50;98057.69;;;20.98;48.10